createdAt,value
2022-10-10T00:01:33.183Z,3.20
2022-10-10T00:04:01.637Z,2.25
2022-10-10T00:06:32.952Z,2.97
2022-10-10T00:09:02.264Z,2.60
2022-10-10T00:11:31.811Z,2.83
2022-10-10T00:14:00.231Z,2.40
2022-10-10T00:16:28.373Z,2.88
2022-10-10T00:18:56.153Z,2.78
2022-10-10T00:21:23.972Z,2.28
2022-10-10T00:23:51.715Z,2.53
2022-10-10T00:26:19.816Z,2.47
2022-10-10T00:28:49.168Z,3.03
2022-10-10T00:31:17.561Z,2.10
2022-10-10T00:33:46.112Z,2.45
2022-10-10T00:36:13.945Z,3.10
2022-10-10T00:38:42.149Z,3.03
2022-10-10T00:41:10.401Z,2.80
2022-10-10T00:43:38.522Z,2.40
2022-10-10T00:46:08.040Z,2.20
2022-10-10T00:48:42.094Z,2.28
2022-10-10T00:51:14.775Z,2.95
2022-10-10T00:53:47.042Z,2.88
2022-10-10T00:56:20.244Z,2.70
2022-10-10T00:58:52.774Z,2.03
2022-10-10T01:01:22.067Z,2.30
2022-10-10T01:03:50.512Z,3.10
2022-10-10T01:06:18.343Z,2.45
2022-10-10T01:08:46.235Z,2.70
2022-10-10T01:11:35.829Z,2.67
2022-10-10T01:14:17.358Z,2.67
2022-10-10T01:16:58.875Z,2.47
2022-10-10T01:20:24.827Z,2.55
2022-10-10T01:23:20.362Z,2.92
2022-10-10T01:26:10.150Z,2.95
2022-10-10T01:28:51.646Z,2.67
2022-10-10T01:31:25.594Z,2.83
2022-10-10T01:34:06.154Z,2.15
2022-10-10T01:36:44.082Z,2.25
2022-10-10T01:39:24.714Z,2.30
2022-10-10T01:42:02.554Z,2.67
2022-10-10T01:44:31.629Z,2.05
2022-10-10T01:46:59.952Z,2.30
2022-10-10T01:49:33.963Z,2.20
2022-10-10T01:52:19.804Z,2.25
2022-10-10T01:55:03.554Z,2.08
2022-10-10T01:57:50.400Z,2.30
2022-10-10T02:00:20.465Z,3.15
2022-10-10T02:02:59.287Z,2.50
2022-10-10T02:05:35.625Z,2.60
2022-10-10T02:08:10.766Z,2.38
2022-10-10T02:10:47.364Z,2.58
2022-10-10T02:13:19.056Z,2.33
2022-10-10T02:15:54.687Z,2.28
2022-10-10T02:18:29.138Z,2.75
2022-10-10T02:20:57.219Z,2.55
2022-10-10T02:23:26.152Z,2.63
2022-10-10T02:25:57.557Z,2.03
2022-10-10T02:28:34.520Z,2.67
2022-10-10T02:31:12.153Z,2.50
2022-10-10T02:33:46.920Z,2.90
2022-10-10T02:36:18.702Z,2.33
2022-10-10T02:38:48.779Z,2.65
2022-10-10T02:41:20.731Z,2.33
2022-10-10T02:43:50.740Z,2.50
2022-10-10T02:46:20.584Z,3.22
2022-10-10T02:48:48.423Z,2.28
2022-10-10T02:51:18.206Z,3.03
2022-10-10T02:53:47.386Z,1.98
2022-10-10T02:56:15.116Z,2.70
2022-10-10T02:58:42.925Z,3.00
2022-10-10T03:01:11.051Z,2.90
2022-10-10T03:03:40.273Z,2.42
2022-10-10T03:06:08.692Z,3.05
2022-10-10T03:08:38.576Z,2.30
2022-10-10T03:11:07.424Z,2.40
2022-10-10T03:13:35.272Z,2.83
2022-10-10T03:16:04.265Z,2.50
2022-10-10T03:18:32.012Z,3.28
2022-10-10T03:21:01.062Z,3.20
2022-10-10T03:23:28.738Z,2.58
2022-10-10T03:25:56.902Z,2.75
2022-10-10T03:28:24.698Z,3.00
2022-10-10T03:30:52.521Z,2.90
2022-10-10T03:33:20.278Z,3.08
2022-10-10T03:35:47.982Z,2.08
2022-10-10T03:38:17.648Z,2.42
2022-10-10T03:40:46.428Z,2.38
2022-10-10T03:43:15.745Z,2.90
2022-10-10T03:45:44.783Z,2.40
2022-10-10T03:48:13.340Z,3.00
2022-10-10T03:50:41.336Z,2.33
2022-10-10T03:53:09.906Z,2.60
2022-10-10T03:55:41.906Z,2.13
2022-10-10T03:58:10.028Z,2.97
2022-10-10T04:00:38.330Z,2.80
2022-10-10T04:03:07.008Z,2.28
2022-10-10T04:05:36.362Z,2.10
2022-10-10T04:08:05.841Z,2.75
2022-10-10T04:10:33.821Z,2.83
2022-10-10T04:13:02.855Z,2.20
2022-10-10T04:15:31.704Z,2.53
2022-10-10T04:17:59.793Z,2.28
2022-10-10T04:20:27.828Z,2.55
2022-10-10T04:22:55.541Z,2.95
2022-10-10T04:25:23.283Z,2.65
2022-10-10T04:27:51.159Z,2.92
2022-10-10T04:30:20.627Z,2.92
2022-10-10T04:32:48.631Z,2.30
2022-10-10T04:35:16.694Z,2.50
2022-10-10T04:37:45.604Z,2.40
2022-10-10T04:40:13.435Z,2.63
2022-10-10T04:42:41.143Z,1.98
2022-10-10T04:45:10.279Z,2.42
2022-10-10T04:47:39.340Z,2.58
2022-10-10T04:50:08.375Z,2.53
2022-10-10T04:52:36.165Z,2.60
2022-10-10T04:55:04.100Z,2.60
2022-10-10T04:57:31.818Z,2.10
2022-10-10T04:59:59.527Z,2.30
2022-10-10T05:02:27.339Z,2.22
2022-10-10T05:04:56.396Z,3.00
2022-10-10T05:07:24.198Z,2.17
2022-10-10T05:09:52.097Z,2.05
2022-10-10T05:12:19.776Z,2.40
2022-10-10T05:14:48.393Z,2.42
2022-10-10T05:17:16.473Z,2.58
2022-10-10T05:19:44.224Z,2.63
2022-10-10T05:22:13.300Z,2.22
2022-10-10T05:24:41.178Z,3.08
2022-10-10T05:27:08.902Z,3.13
2022-10-10T05:29:36.624Z,2.33
2022-10-10T05:32:09.194Z,2.03
2022-10-10T05:34:38.241Z,2.08
2022-10-10T05:37:06.103Z,2.47
2022-10-10T05:39:35.411Z,3.08
2022-10-10T05:42:03.152Z,2.72
2022-10-10T05:44:30.928Z,2.15
2022-10-10T05:46:58.679Z,2.35
2022-10-10T05:49:26.445Z,2.42
2022-10-10T05:51:54.161Z,2.40
2022-10-10T05:54:22.268Z,2.58
2022-10-10T05:56:51.302Z,2.90
2022-10-10T05:59:19.012Z,2.47
2022-10-10T06:01:46.793Z,2.28
2022-10-10T06:04:14.492Z,2.15
2022-10-10T06:06:42.743Z,2.80
2022-10-10T06:09:10.597Z,2.33
2022-10-10T06:11:38.369Z,1.98
2022-10-10T06:14:07.536Z,2.80
2022-10-10T06:16:36.838Z,1.85
2022-10-10T06:19:05.096Z,2.38
2022-10-10T06:21:33.091Z,2.10
2022-10-10T06:24:00.869Z,2.70
2022-10-10T06:26:28.685Z,2.40
2022-10-10T06:28:56.426Z,2.30
2022-10-10T06:31:25.484Z,2.55
2022-10-10T06:33:53.445Z,2.13
2022-10-10T06:36:21.402Z,2.50
2022-10-10T06:38:49.196Z,2.40
2022-10-10T06:41:16.987Z,2.90
2022-10-10T06:43:44.765Z,2.38
2022-10-10T06:46:13.266Z,2.50
2022-10-10T06:48:42.431Z,2.55
2022-10-10T06:51:16.083Z,2.35
2022-10-10T06:53:44.555Z,3.03
2022-10-10T06:56:17.582Z,2.75
2022-10-10T06:58:46.051Z,2.58
2022-10-10T07:01:14.166Z,2.45
2022-10-10T07:03:43.443Z,2.20
2022-10-10T07:06:13.398Z,2.70
2022-10-10T07:08:42.420Z,3.03
2022-10-10T07:11:11.118Z,2.80
2022-10-10T07:13:39.773Z,2.42
2022-10-10T07:16:08.384Z,2.83
2022-10-10T07:18:37.603Z,2.28
2022-10-10T07:21:07.151Z,2.33
2022-10-10T07:23:36.435Z,2.38
2022-10-10T07:26:07.161Z,2.67
2022-10-10T07:28:35.722Z,2.40
2022-10-10T07:31:06.959Z,2.42
2022-10-10T07:33:37.586Z,2.17
2022-10-10T07:36:07.543Z,2.92
2022-10-10T07:38:37.089Z,2.80
2022-10-10T07:41:07.589Z,2.35
2022-10-10T07:43:37.088Z,1.88
2022-10-10T07:46:08.192Z,2.55
2022-10-10T07:48:39.106Z,2.03
2022-10-10T07:51:08.755Z,2.97
2022-10-10T07:53:36.759Z,3.00
2022-10-10T07:56:06.173Z,2.47
2022-10-10T07:58:34.946Z,2.38
2022-10-10T08:01:04.621Z,2.20
2022-10-10T08:03:32.867Z,2.38
2022-10-10T08:06:04.519Z,2.33
2022-10-10T08:08:34.598Z,2.78
2022-10-10T08:11:05.816Z,2.50
2022-10-10T08:13:34.023Z,2.65
2022-10-10T08:16:04.321Z,2.38
2022-10-10T08:18:32.437Z,1.98
2022-10-10T08:21:01.793Z,2.38
2022-10-10T08:23:29.856Z,2.30
2022-10-10T08:26:01.808Z,2.40
2022-10-10T08:28:29.972Z,2.28
2022-10-10T08:30:57.838Z,2.28
2022-10-10T08:33:28.506Z,1.98
2022-10-10T08:35:56.505Z,2.60
2022-10-10T08:38:24.287Z,2.00
2022-10-10T08:40:58.391Z,2.47
2022-10-10T08:43:36.529Z,2.83
2022-10-10T08:46:15.567Z,2.53
2022-10-10T08:48:47.235Z,2.65
2022-10-10T08:51:27.396Z,2.10
2022-10-10T08:54:00.033Z,2.15
2022-10-10T08:56:33.514Z,2.97
2022-10-10T08:59:15.202Z,2.45
2022-10-10T09:02:18.858Z,2.17
2022-10-10T09:04:33.547Z,2.20
2022-10-10T09:07:24.577Z,1.73
2022-10-10T09:10:11.085Z,2.55
2022-10-10T09:12:49.702Z,2.00
2022-10-10T09:15:26.078Z,1.70
2022-10-10T09:18:11.239Z,2.00
2022-10-10T09:23:29.195Z,2.15
2022-10-10T09:26:06.409Z,1.88
2022-10-10T09:28:44.999Z,2.13
2022-10-10T09:31:22.349Z,2.00
2022-10-10T09:33:56.702Z,1.58
2022-10-10T09:36:32.751Z,2.05
2022-10-10T09:39:05.489Z,2.28
2022-10-10T09:41:40.489Z,2.20
2022-10-10T09:44:15.331Z,2.05
2022-10-10T09:46:44.518Z,1.88
2022-10-10T09:49:17.386Z,1.98
2022-10-10T09:51:46.216Z,2.05
2022-10-10T09:54:18.528Z,1.88
2022-10-10T09:56:54.338Z,2.00
2022-10-10T09:59:41.998Z,1.95
2022-10-10T10:02:18.948Z,1.77
2022-10-10T10:04:48.245Z,1.92
2022-10-10T10:07:26.150Z,1.70
2022-10-10T10:09:58.167Z,1.88
2022-10-10T10:12:32.001Z,2.13
2022-10-10T10:15:05.327Z,1.45
2022-10-10T10:17:34.641Z,1.75
2022-10-10T10:20:02.890Z,2.00
2022-10-10T10:22:39.025Z,1.58
2022-10-10T10:25:31.896Z,1.90
2022-10-10T10:28:21.352Z,1.50
2022-10-10T10:30:49.790Z,1.58
2022-10-10T10:33:38.800Z,1.80
2022-10-10T10:36:22.174Z,1.48
2022-10-10T10:38:56.636Z,1.58
2022-10-10T10:41:36.141Z,1.42
2022-10-10T10:44:28.918Z,1.40
2022-10-10T10:47:15.083Z,2.10
2022-10-10T10:50:00.702Z,1.63
2022-10-10T10:52:57.427Z,1.52
2022-10-10T10:55:40.128Z,1.70
2022-10-10T11:01:56.663Z,1.60
2022-10-10T11:05:17.217Z,1.38
2022-10-10T11:07:59.469Z,2.00
2022-10-10T11:10:39.785Z,1.75
2022-10-10T11:13:20.020Z,2.30
2022-10-10T11:16:07.257Z,1.85
2022-10-10T11:18:47.081Z,2.00
2022-10-10T11:21:24.197Z,2.10
2022-10-10T11:23:59.671Z,1.40
2022-10-10T11:26:32.910Z,1.33
2022-10-10T11:29:07.080Z,1.52
2022-10-10T11:31:43.553Z,1.60
2022-10-10T11:34:19.709Z,1.63
2022-10-10T11:36:51.073Z,1.80
2022-10-10T11:39:28.040Z,1.42
2022-10-10T11:42:02.308Z,1.58
2022-10-10T11:44:36.841Z,1.42
2022-10-10T11:47:13.510Z,1.80
2022-10-10T11:49:52.926Z,1.60
2022-10-10T11:52:34.990Z,1.40
2022-10-10T11:55:14.214Z,1.55
2022-10-10T11:57:50.912Z,1.35
2022-10-10T12:00:20.178Z,1.67
2022-10-10T12:02:48.957Z,1.83
2022-10-10T12:05:25.713Z,2.10
2022-10-10T12:08:20.507Z,1.70
2022-10-10T12:10:58.044Z,1.63
2022-10-10T12:13:35.094Z,1.75
2022-10-10T12:16:08.515Z,1.67
2022-10-10T12:18:44.964Z,1.42
2022-10-10T12:21:16.773Z,1.50
2022-10-10T12:23:50.738Z,1.65
2022-10-10T12:26:24.293Z,1.63
2022-10-10T12:29:05.892Z,1.60
2022-10-10T12:31:38.635Z,1.40
2022-10-10T12:34:16.562Z,1.67
2022-10-10T12:37:22.093Z,1.27
2022-10-10T12:40:21.813Z,1.83
2022-10-10T12:43:24.371Z,0.98
2022-10-10T12:46:26.749Z,1.67
2022-10-10T12:49:16.125Z,1.40
2022-10-10T12:51:45.790Z,1.45
2022-10-10T12:54:27.846Z,1.48
2022-10-10T12:57:13.550Z,1.45
2022-10-10T12:59:42.908Z,1.55
2022-10-10T13:02:21.117Z,1.33
2022-10-10T13:04:51.705Z,0.98
2022-10-10T13:07:23.316Z,1.25
2022-10-10T13:09:54.999Z,1.30
2022-10-10T13:12:28.091Z,1.13
2022-10-10T13:14:57.716Z,1.27
2022-10-10T13:17:29.945Z,0.75
2022-10-10T13:20:00.628Z,0.98
2022-10-10T13:22:30.987Z,0.85
2022-10-10T13:25:01.426Z,0.88
2022-10-10T13:27:35.060Z,1.33
2022-10-10T13:30:08.084Z,0.93
2022-10-10T13:32:37.255Z,1.30
2022-10-10T13:35:13.992Z,1.35
2022-10-10T13:37:43.770Z,1.27
2022-10-10T13:40:16.537Z,1.00
2022-10-10T13:42:48.872Z,0.73
2022-10-10T13:45:38.564Z,1.35
2022-10-10T13:48:29.243Z,0.85
2022-10-10T13:51:09.506Z,1.20
2022-10-10T13:53:48.734Z,1.10
2022-10-10T13:56:23.446Z,1.00
2022-10-10T13:58:56.204Z,1.42
2022-10-10T14:01:37.776Z,1.00
2022-10-10T14:04:23.355Z,1.55
2022-10-10T14:07:02.189Z,1.67
2022-10-10T14:09:36.926Z,1.08
2022-10-10T14:12:09.447Z,0.93
2022-10-10T14:14:47.590Z,1.40
2022-10-10T14:17:16.736Z,1.00
2022-10-10T14:19:47.438Z,1.08
2022-10-10T14:22:15.238Z,1.33
2022-10-10T14:24:43.105Z,1.45
2022-10-10T14:27:22.109Z,0.88
2022-10-10T14:29:51.774Z,1.08
2022-10-10T14:32:20.372Z,0.95
2022-10-10T14:34:48.744Z,1.00
2022-10-10T14:37:20.288Z,1.05
2022-10-10T14:39:48.497Z,0.47
2022-10-10T14:42:19.209Z,1.10
2022-10-10T14:44:47.403Z,0.80
2022-10-10T14:47:18.780Z,1.30
2022-10-10T14:49:46.880Z,0.88
2022-10-10T14:52:15.157Z,0.77
2022-10-10T14:54:43.227Z,0.93
2022-10-10T14:57:13.441Z,1.30
2022-10-10T14:59:47.261Z,1.17
2022-10-10T15:02:21.822Z,0.98
2022-10-10T15:04:50.933Z,1.42
2022-10-10T15:07:19.209Z,0.75
2022-10-10T15:10:27.482Z,1.30
2022-10-10T15:12:39.632Z,1.08
2022-10-10T15:15:10.256Z,0.80
2022-10-10T15:17:39.393Z,1.30
2022-10-10T15:20:10.957Z,0.60
2022-10-10T15:22:38.896Z,0.77
2022-10-10T15:25:08.776Z,1.05
2022-10-10T15:27:37.479Z,0.85
2022-10-10T15:30:06.577Z,0.93
2022-10-10T15:32:34.730Z,0.85
2022-10-10T15:35:03.764Z,1.17
2022-10-10T15:37:31.466Z,0.95
2022-10-10T15:39:59.281Z,1.13
2022-10-10T15:42:27.006Z,1.48
2022-10-10T15:44:54.734Z,0.73
2022-10-10T15:47:23.649Z,1.23
2022-10-10T15:49:51.566Z,0.60
2022-10-10T15:52:22.918Z,1.35
2022-10-10T15:54:51.208Z,0.98
2022-10-10T15:57:19.444Z,1.20
2022-10-10T15:59:48.033Z,0.93
2022-10-10T16:02:17.357Z,1.08
2022-10-10T16:04:46.773Z,1.73
2022-10-10T16:07:34.706Z,0.90
2022-10-10T16:10:04.587Z,0.95
2022-10-10T16:12:32.306Z,0.82
2022-10-10T16:15:04.644Z,0.77
2022-10-10T16:17:34.732Z,0.95
2022-10-10T16:20:02.429Z,1.10
2022-10-10T16:22:30.146Z,1.42
2022-10-10T16:25:20.593Z,1.30
2022-10-10T16:27:47.277Z,1.33
2022-10-10T16:30:16.310Z,0.82
2022-10-10T16:32:43.997Z,1.27
2022-10-10T16:35:12.292Z,0.75
2022-10-10T16:37:40.132Z,0.55
2022-10-10T16:40:09.409Z,0.98
2022-10-10T16:42:37.262Z,1.00
2022-10-10T16:45:07.970Z,1.25
2022-10-10T16:47:35.786Z,0.60
2022-10-10T16:50:05.941Z,0.68
2022-10-10T16:52:37.646Z,0.57
2022-10-10T16:55:06.668Z,1.48
2022-10-10T16:57:35.079Z,1.30
2022-10-10T17:00:03.102Z,1.25
2022-10-10T17:02:32.681Z,0.90
2022-10-10T17:05:00.604Z,1.08
2022-10-10T17:07:28.391Z,1.25
2022-10-10T17:09:56.130Z,0.95
2022-10-10T17:12:23.884Z,1.02
2022-10-10T17:14:51.599Z,1.10
2022-10-10T17:17:19.328Z,0.73
2022-10-10T17:19:49.049Z,1.15
2022-10-10T17:22:17.318Z,0.93
2022-10-10T17:24:45.058Z,1.00
2022-10-10T17:27:13.074Z,1.23
2022-10-10T17:29:40.922Z,0.90
2022-10-10T17:32:08.667Z,1.05
2022-10-10T17:34:36.672Z,1.00
2022-10-10T17:37:06.317Z,1.00
2022-10-10T17:39:34.106Z,1.10
2022-10-10T17:42:01.991Z,1.10
2022-10-10T17:44:29.763Z,1.40
2022-10-10T17:46:57.831Z,1.02
2022-10-10T17:49:25.806Z,1.00
2022-10-10T17:51:53.566Z,1.17
2022-10-10T17:54:23.127Z,0.98
2022-10-10T17:56:50.998Z,0.75
2022-10-10T17:59:18.741Z,0.70
2022-10-10T18:01:46.519Z,1.13
2022-10-10T18:04:16.315Z,1.13
2022-10-10T18:06:44.143Z,1.35
2022-10-10T18:09:11.869Z,0.77
2022-10-10T18:11:40.949Z,0.73
2022-10-10T18:14:08.680Z,0.60
2022-10-10T18:16:37.013Z,0.63
2022-10-10T18:19:07.269Z,0.93
2022-10-10T18:21:35.841Z,0.82
2022-10-10T18:24:03.898Z,0.95
2022-10-10T18:26:32.451Z,1.35
2022-10-10T18:29:01.506Z,1.30
2022-10-10T18:31:33.090Z,0.95
2022-10-10T18:34:01.916Z,0.80
2022-10-10T18:36:33.699Z,1.10
2022-10-10T18:39:04.674Z,1.23
2022-10-10T18:41:34.215Z,1.23
2022-10-10T18:44:05.636Z,1.50
2022-10-10T18:46:34.896Z,1.33
2022-10-10T18:49:03.126Z,1.17
2022-10-10T18:51:31.548Z,0.77
2022-10-10T18:54:03.717Z,1.00
2022-10-10T18:56:33.675Z,1.35
2022-10-10T18:59:05.972Z,1.58
2022-10-10T19:01:37.153Z,0.77
2022-10-10T19:04:07.124Z,1.27
2022-10-10T19:06:35.700Z,1.20
2022-10-10T19:09:06.040Z,0.85
2022-10-10T19:11:39.006Z,1.33
2022-10-10T19:14:12.883Z,1.10
2022-10-10T19:16:42.948Z,0.68
2022-10-10T19:19:14.694Z,0.82
2022-10-10T19:21:42.388Z,0.68
2022-10-10T19:24:15.107Z,0.73
2022-10-10T19:26:44.601Z,0.85
2022-10-10T19:29:13.922Z,1.02
2022-10-10T19:31:42.059Z,1.35
2022-10-10T19:34:09.904Z,0.65
2022-10-10T19:36:39.939Z,0.47
2022-10-10T19:39:09.871Z,1.05
2022-10-10T19:41:37.659Z,1.45
2022-10-10T19:44:05.926Z,1.45
2022-10-10T19:46:37.548Z,1.48
2022-10-10T19:49:06.400Z,1.40
2022-10-10T19:51:34.244Z,0.95
2022-10-10T19:54:02.172Z,1.23
2022-10-10T19:56:30.043Z,1.63
2022-10-10T19:59:00.756Z,1.90
2022-10-10T20:01:30.773Z,2.28
2022-10-10T20:04:00.112Z,1.08
2022-10-10T20:06:28.617Z,1.65
2022-10-10T20:08:56.986Z,1.48
2022-10-10T20:11:26.136Z,1.70
2022-10-10T20:13:55.153Z,1.42
2022-10-10T20:16:24.739Z,1.25
2022-10-10T20:18:52.835Z,0.80
2022-10-10T20:21:29.014Z,1.40
2022-10-10T20:23:57.269Z,1.15
2022-10-10T20:26:26.532Z,0.50
2022-10-10T20:28:57.107Z,1.08
2022-10-10T20:31:28.144Z,1.05
2022-10-10T20:34:00.537Z,1.40
2022-10-10T20:36:32.007Z,1.13
2022-10-10T20:39:02.570Z,0.93
2022-10-10T20:41:34.075Z,1.65
2022-10-10T20:44:05.150Z,1.27
2022-10-10T20:46:36.526Z,1.35
2022-10-10T20:49:06.763Z,1.88
2022-10-10T20:51:35.852Z,1.67
2022-10-10T20:54:06.608Z,0.98
2022-10-10T20:56:36.818Z,1.48
2022-10-10T20:59:04.740Z,1.20
2022-10-10T21:01:32.716Z,1.15
2022-10-10T21:04:01.814Z,1.45
2022-10-10T21:06:33.390Z,1.52
2022-10-10T21:09:05.879Z,2.63
2022-10-10T21:11:34.623Z,1.25
2022-10-10T21:14:03.102Z,1.35
2022-10-10T21:16:33.906Z,1.35
2022-10-10T21:19:02.218Z,1.30
2022-10-10T21:21:32.506Z,0.90
2022-10-10T21:24:03.595Z,0.93
2022-10-10T21:26:32.280Z,1.10
2022-10-10T21:29:01.325Z,1.25
2022-10-10T21:31:33.339Z,0.85
2022-10-10T21:34:03.541Z,1.23
2022-10-10T21:36:32.462Z,1.25
2022-10-10T21:39:02.903Z,0.82
2022-10-10T21:41:30.680Z,1.02
2022-10-10T21:44:00.691Z,1.58
2022-10-10T21:46:35.978Z,0.73
2022-10-10T21:49:08.004Z,0.98
2022-10-10T21:51:38.865Z,0.82
2022-10-10T21:54:09.099Z,1.27
2022-10-10T21:56:37.228Z,1.20
2022-10-10T21:59:05.727Z,1.30
2022-10-10T22:01:33.909Z,0.98
2022-10-10T22:04:03.445Z,1.85
2022-10-10T22:06:32.334Z,1.45
2022-10-10T22:09:02.535Z,1.30
2022-10-10T22:11:34.185Z,1.23
2022-10-10T22:14:03.329Z,1.40
2022-10-10T22:16:31.568Z,0.95
2022-10-10T22:19:00.210Z,1.35
2022-10-10T22:21:31.564Z,1.27
2022-10-10T22:24:01.310Z,1.23
2022-10-10T22:26:29.105Z,1.27
2022-10-10T22:28:58.888Z,1.42
2022-10-10T22:31:27.042Z,1.20
2022-10-10T22:33:54.804Z,1.23
2022-10-10T22:36:22.611Z,0.85
2022-10-10T22:38:50.273Z,1.67
2022-10-10T22:41:18.036Z,1.23
2022-10-10T22:43:45.825Z,1.05
2022-10-10T22:46:15.203Z,1.08
2022-10-10T22:48:43.230Z,1.20
2022-10-10T22:51:15.382Z,1.05
2022-10-10T22:53:45.765Z,1.30
2022-10-10T22:56:16.786Z,1.05
2022-10-10T22:58:45.172Z,0.90
2022-10-10T23:01:19.151Z,1.50
2022-10-10T23:03:47.562Z,1.88
2022-10-10T23:06:16.184Z,1.10
2022-10-10T23:08:43.907Z,1.55
2022-10-10T23:11:11.642Z,1.10
2022-10-10T23:13:39.429Z,1.08
2022-10-10T23:16:08.334Z,1.20
2022-10-10T23:18:38.028Z,1.38
2022-10-10T23:21:06.086Z,0.90
2022-10-10T23:23:33.847Z,1.30
2022-10-10T23:26:07.026Z,1.30
2022-10-10T23:28:36.861Z,0.80
2022-10-10T23:31:09.260Z,1.08
2022-10-10T23:33:39.503Z,1.00
2022-10-10T23:36:12.594Z,0.82
2022-10-10T23:38:41.151Z,0.80
2022-10-10T23:41:10.015Z,1.27
2022-10-10T23:43:38.340Z,1.65
2022-10-10T23:46:07.226Z,1.58
2022-10-10T23:48:37.191Z,1.30
2022-10-10T23:51:07.218Z,0.70
2022-10-10T23:53:35.758Z,1.50
2022-10-10T23:56:03.954Z,1.52
2022-10-10T23:58:32.041Z,1.25
